Terminal Aerodrome Forecast
Issued by NWS Bismarck, ND

Home | Current Version | Previous Version | Text Only | Print | Product List | Glossary Off
Versions: 1 2 3 4 5 6 7 8 9 10 11 12 13 14 15 16 17 18

000
FTUS43 KBIS 241129
TAFBIS
TAF
KBIS 241129Z 2412/2512 16005KT P6SM BKN070 BKN150
     FM241500 22010KT P6SM FEW060 FEW250
     FM242200 25013G21KT P6SM BKN060 BKN250
     FM242300 25014KT P6SM FEW060 SCT200=

USA.gov is the U.S. government's official web portal to all federal, state and local government web resources and services.